Time;durP1;ratioP1;P1;durP2;ratioP2;P2;SDS_P1;SDS_P2;PMS_P1;PMS_P2;Temp;Humidity;BMP_temperature;BMP_pressure;BME280_temperature;BME280_humidity;BME280_pressure;Samples;Min_cycle;Max_cycle;Signal;HPM_P1;HPM_P2
2022/02/14 00:01:36;;;;;;;5.77;4.07;;;;;;;2.55;62.88;94905.91;4996283;28;20211;-79
2022/02/14 00:04:01;;;;;;;7.00;3.87;;;;;;;2.52;63.00;94899.28;5005520;28;20207;-78
2022/02/14 00:06:26;;;;;;;8.17;4.40;;;;;;;2.52;62.65;94893.34;5029056;28;20171;-79
2022/02/14 00:08:51;;;;;;;6.43;4.17;;;;;;;2.50;62.99;94885.78;5028676;28;20541;-79
2022/02/14 00:11:17;;;;;;;7.70;3.87;;;;;;;2.45;63.26;94882.72;5012565;28;20207;-79
2022/02/14 00:13:42;;;;;;;9.90;3.73;;;;;;;2.44;63.52;94882.84;5014757;28;20217;-79
2022/02/14 00:16:07;;;;;;;7.53;3.87;;;;;;;2.51;62.71;94876.34;5012832;28;20249;-78
2022/02/14 00:18:33;;;;;;;5.83;3.60;;;;;;;2.50;62.91;94877.28;5013021;28;20649;-79
2022/02/14 00:20:58;;;;;;;6.97;4.20;;;;;;;2.53;63.19;94866.78;5013118;28;20199;-80
2022/02/14 00:23:23;;;;;;;6.77;4.20;;;;;;;2.47;63.18;94867.22;5012220;28;20175;-78
2022/02/14 00:25:48;;;;;;;5.97;3.93;;;;;;;2.51;63.12;94861.78;5012614;28;20222;-77
2022/02/14 00:28:14;;;;;;;6.13;4.27;;;;;;;2.53;63.06;94857.34;5012950;28;20206;-78
2022/02/14 00:30:39;;;;;;;5.87;4.33;;;;;;;2.64;62.20;94856.53;5012634;28;20278;-79
2022/02/14 00:33:05;;;;;;;7.07;4.10;;;;;;;2.61;62.71;94848.25;5011229;28;20187;-79
2022/02/14 00:35:30;;;;;;;5.77;4.57;;;;;;;2.63;62.63;94857.47;5012489;28;20649;-79
2022/02/14 00:37:55;;;;;;;7.97;4.23;;;;;;;2.62;62.56;94837.06;5012674;28;20554;-79
2022/02/14 00:40:21;;;;;;;9.37;4.60;;;;;;;2.63;62.66;94836.94;5012670;28;20233;-78
2022/02/14 00:42:46;;;;;;;5.97;4.27;;;;;;;2.64;62.34;94838.56;5012201;28;20669;-79
2022/02/14 00:45:11;;;;;;;7.73;4.40;;;;;;;2.66;62.53;94841.88;5012492;28;20241;-79
2022/02/14 00:47:37;;;;;;;8.97;4.73;;;;;;;2.60;62.73;94836.38;5012897;28;20176;-80
2022/02/14 00:50:03;;;;;;;7.63;4.23;;;;;;;2.63;63.21;94834.38;5012720;28;20178;-80
2022/02/14 00:52:28;;;;;;;7.67;4.13;;;;;;;2.60;63.08;94831.25;5012210;28;20185;-79
2022/02/14 00:54:57;;;;;;;7.23;4.43;;;;;;;2.62;63.40;94829.38;5012393;28;20279;-80
2022/02/14 00:57:26;;;;;;;7.33;4.47;;;;;;;2.62;63.06;94834.50;4996457;28;20242;-80
2022/02/14 00:59:51;;;;;;;6.50;4.60;;;;;;;2.66;62.66;94820.53;5012556;28;20187;-80
2022/02/14 01:02:17;;;;;;;5.57;4.30;;;;;;;2.60;62.57;94821.00;5012209;28;20550;-79
2022/02/14 01:04:42;;;;;;;9.73;4.83;;;;;;;2.65;62.35;94809.47;5012638;28;20187;-80
2022/02/14 01:07:07;;;;;;;6.40;4.30;;;;;;;2.64;62.79;94809.56;5011486;28;20183;-78
2022/02/14 01:09:33;;;;;;;6.77;4.00;;;;;;;2.63;63.21;94821.56;5012416;28;20190;-80
2022/02/14 01:11:58;;;;;;;7.40;4.17;;;;;;;2.60;62.97;94814.13;5011841;28;20199;-80
2022/02/14 01:14:23;;;;;;;6.60;4.40;;;;;;;2.61;62.88;94809.81;5012589;28;20182;-79
2022/02/14 01:16:49;;;;;;;6.63;4.13;;;;;;;2.55;62.88;94811.91;5012776;28;20198;-79
2022/02/14 01:19:14;;;;;;;4.83;3.90;;;;;;;2.55;62.67;94806.78;5012135;28;20201;-80
2022/02/14 01:21:39;;;;;;;9.10;4.53;;;;;;;2.53;62.66;94806.06;5028093;28;20208;-79
2022/02/14 01:24:05;;;;;;;8.43;4.00;;;;;;;2.51;63.12;94802.00;5015646;28;20243;-80
2022/02/14 01:26:30;;;;;;;7.33;4.13;;;;;;;2.41;63.42;94807.03;5015239;28;20266;-78
2022/02/14 01:28:56;;;;;;;7.77;4.40;;;;;;;2.41;63.86;94799.34;5031866;28;20209;-78
2022/02/14 01:31:22;;;;;;;6.13;4.40;;;;;;;2.48;62.62;94802.25;5014760;28;20203;-77
2022/02/14 01:33:47;;;;;;;5.37;4.23;;;;;;;2.43;63.09;94797.47;5015528;28;20178;-77
2022/02/14 01:36:12;;;;;;;5.57;4.23;;;;;;;2.37;63.39;94800.47;5031679;28;20699;-79
2022/02/14 01:38:38;;;;;;;7.93;4.10;;;;;;;2.39;63.34;94798.63;5032385;28;20664;-78
2022/02/14 01:41:03;;;;;;;7.20;4.13;;;;;;;2.40;62.92;94784.91;5032003;28;20581;-79
2022/02/14 01:43:28;;;;;;;7.20;4.50;;;;;;;2.33;63.09;94793.16;5014923;28;20215;-79
2022/02/14 01:45:54;;;;;;;7.73;4.40;;;;;;;2.28;63.36;94785.81;5018711;28;20231;-78
2022/02/14 01:48:19;;;;;;;6.27;4.07;;;;;;;2.35;63.10;94773.34;5018786;28;20573;-78
2022/02/14 01:50:45;;;;;;;7.20;3.80;;;;;;;2.33;63.36;94776.03;5035263;28;20628;-78
2022/02/14 01:53:11;;;;;;;4.93;3.40;;;;;;;2.30;64.11;94775.44;5034676;28;20174;-79
2022/02/14 01:55:36;;;;;;;6.30;4.13;;;;;;;2.31;63.89;94767.66;5035704;28;20185;-77
2022/02/14 01:58:03;;;;;;;4.90;3.90;;;;;;;2.32;63.54;94765.91;5019085;28;20203;-77
2022/02/14 02:00:29;;;;;;;6.50;4.07;;;;;;;2.26;63.57;94762.06;5035920;28;20206;-78
2022/02/14 02:02:54;;;;;;;5.30;4.00;;;;;;;2.23;64.03;94758.00;5018819;28;20178;-78
2022/02/14 02:05:21;;;;;;;7.57;4.07;;;;;;;2.24;63.79;94756.25;5036864;28;20269;-79
2022/02/14 02:07:47;;;;;;;5.53;3.83;;;;;;;2.24;63.78;94749.38;5034318;28;20194;-79
2022/02/14 02:10:13;;;;;;;4.17;3.70;;;;;;;2.23;63.97;94744.38;5018444;28;20218;-78
2022/02/14 02:12:47;;;;;;;5.47;3.97;;;;;;;2.27;63.32;94750.88;5034944;28;20210;-78
2022/02/14 02:15:12;;;;;;;5.07;3.80;;;;;;;2.23;63.21;94741.81;5034836;28;20602;-77
2022/02/14 02:17:38;;;;;;;8.33;4.50;;;;;;;2.27;63.03;94745.75;5035481;28;20202;-79
2022/02/14 02:20:06;;;;;;;6.17;4.10;;;;;;;2.22;63.18;94743.56;5035063;28;20209;-79
2022/02/14 02:22:31;;;;;;;5.53;3.87;;;;;;;2.25;63.14;94733.06;5034975;28;20182;-78
2022/02/14 02:24:57;;;;;;;6.63;3.73;;;;;;;2.15;62.82;94724.44;5019278;28;20261;-79
2022/02/14 02:27:25;;;;;;;7.70;4.23;;;;;;;2.22;62.89;94725.63;5034917;28;20175;-78
2022/02/14 02:30:02;;;;;;;7.07;4.10;;;;;;;2.17;62.96;94720.03;5035038;28;20218;-78
2022/02/14 02:32:29;;;;;;;5.37;3.97;;;;;;;2.07;63.79;94719.09;5034604;28;20727;-79
2022/02/14 02:34:55;;;;;;;5.80;4.13;;;;;;;2.13;63.14;94717.81;5035039;28;20202;-78
2022/02/14 02:37:20;;;;;;;5.40;3.83;;;;;;;2.16;62.99;94709.91;5018564;28;20576;-80
2022/02/14 02:39:46;;;;;;;5.20;3.67;;;;;;;2.08;63.29;94705.34;5035021;28;20178;-79
2022/02/14 02:42:14;;;;;;;5.67;4.03;;;;;;;2.07;63.58;94702.91;5018272;28;20247;-78
2022/02/14 02:44:40;;;;;;;5.93;4.27;;;;;;;1.98;63.97;94700.13;5018380;28;20183;-79
2022/02/14 02:47:07;;;;;;;5.33;3.60;;;;;;;1.97;63.92;94695.13;5035218;28;20177;-78
2022/02/14 02:49:33;;;;;;;6.07;4.00;;;;;;;1.92;63.70;94689.53;5035423;28;20186;-78
2022/02/14 02:51:59;;;;;;;6.70;4.20;;;;;;;1.90;64.50;94688.81;5034242;28;20215;-79
2022/02/14 02:54:25;;;;;;;5.33;4.37;;;;;;;1.86;63.99;94687.44;5035547;28;20221;-78
2022/02/14 02:56:52;;;;;;;6.83;3.60;;;;;;;1.85;63.97;94681.47;5017040;28;20202;-78
2022/02/14 02:59:17;;;;;;;4.80;3.63;;;;;;;1.76;64.06;94682.19;5035207;28;20182;-79
2022/02/14 03:01:43;;;;;;;5.17;3.23;;;;;;;1.76;64.23;94677.06;5017632;28;20314;-78
2022/02/14 03:04:11;;;;;;;9.63;4.00;;;;;;;1.80;64.43;94682.78;5018491;28;20190;-77
2022/02/14 03:06:37;;;;;;;5.93;3.73;;;;;;;1.84;63.83;94674.72;5034827;28;20166;-77
2022/02/14 03:09:03;;;;;;;6.40;3.80;;;;;;;1.78;64.38;94670.09;5033343;28;20266;-78
2022/02/14 03:11:28;;;;;;;4.63;3.53;;;;;;;1.72;64.66;94672.28;5033818;28;20566;-78
2022/02/14 03:13:54;;;;;;;6.37;3.83;;;;;;;1.77;64.13;94675.31;5018341;28;20248;-78
2022/02/14 03:16:20;;;;;;;5.30;3.67;;;;;;;1.80;64.03;94668.22;5036163;28;20186;-78
2022/02/14 03:18:46;;;;;;;4.97;3.77;;;;;;;1.79;64.25;94669.16;5020117;28;20662;-79
2022/02/14 03:21:12;;;;;;;5.10;3.50;;;;;;;1.82;63.94;94675.78;5034210;28;20202;-77
2022/02/14 03:23:38;;;;;;;6.43;3.67;;;;;;;1.83;63.55;94664.63;5034088;28;20182;-78
2022/02/14 03:26:04;;;;;;;4.83;3.43;;;;;;;1.88;63.66;94665.91;5033551;28;20285;-78
2022/02/14 03:28:30;;;;;;;8.13;3.87;;;;;;;1.88;63.93;94660.78;5034570;28;20236;-80
2022/02/14 03:30:56;;;;;;;4.47;3.63;;;;;;;1.91;63.58;94665.66;5035359;28;20199;-78
2022/02/14 03:33:21;;;;;;;6.67;3.63;;;;;;;1.90;63.84;94650.41;5033534;28;20170;-79
2022/02/14 03:35:47;;;;;;;6.00;3.43;;;;;;;1.87;63.74;94654.03;5033663;28;20191;-79
2022/02/14 03:38:12;;;;;;;5.87;4.23;;;;;;;1.91;63.51;94647.75;5033690;28;20195;-79
2022/02/14 03:40:38;;;;;;;4.87;3.63;;;;;;;1.90;63.67;94643.56;5033277;28;20263;-80
2022/02/14 03:43:06;;;;;;;5.43;3.80;;;;;;;1.88;64.07;94642.06;5032686;28;20183;-80
2022/02/14 03:45:32;;;;;;;5.67;3.57;;;;;;;1.89;63.55;94639.38;5033400;28;20182;-79
2022/02/14 03:47:58;;;;;;;7.50;3.57;;;;;;;1.93;63.72;94638.19;5033191;28;20193;-80
2022/02/14 03:50:24;;;;;;;5.40;3.63;;;;;;;1.95;63.64;94644.03;5033068;28;20540;-80
2022/02/14 03:52:49;;;;;;;5.73;3.90;;;;;;;1.94;63.71;94639.00;5016416;28;20174;-80
2022/02/14 03:55:14;;;;;;;8.60;4.37;;;;;;;1.90;64.13;94641.00;5017070;28;20179;-80
2022/02/14 03:57:41;;;;;;;5.20;3.23;;;;;;;1.87;64.06;94633.56;5033786;28;20576;-80
2022/02/14 04:00:08;;;;;;;5.70;3.13;;;;;;;1.90;64.24;94633.31;5033627;28;20194;-80
2022/02/14 04:02:35;;;;;;;5.73;3.40;;;;;;;1.91;63.89;94629.00;5032843;28;20187;-79
2022/02/14 04:05:00;;;;;;;5.83;3.47;;;;;;;1.91;64.10;94634.13;5032907;28;20185;-79
2022/02/14 04:07:26;;;;;;;7.03;3.53;;;;;;;1.83;64.27;94632.16;5032439;28;20340;-79
2022/02/14 04:09:51;;;;;;;6.90;3.40;;;;;;;1.88;64.04;94635.19;5033278;28;20195;-78
2022/02/14 04:12:16;;;;;;;6.27;3.40;;;;;;;1.85;64.14;94629.47;5033155;28;20194;-79
2022/02/14 04:14:42;;;;;;;7.40;3.60;;;;;;;1.84;63.83;94630.41;5034783;28;20181;-80
2022/02/14 04:17:07;;;;;;;5.13;3.20;;;;;;;1.86;63.87;94631.94;5017039;28;20725;-80
2022/02/14 04:19:32;;;;;;;7.47;3.10;;;;;;;1.79;64.44;94632.50;5034345;28;20186;-80
2022/02/14 04:21:58;;;;;;;8.27;3.30;;;;;;;1.74;64.77;94620.06;5032285;28;20202;-80
2022/02/14 04:24:23;;;;;;;5.57;3.27;;;;;;;1.79;64.48;94623.09;5033389;28;20619;-79
2022/02/14 04:26:48;;;;;;;4.77;3.10;;;;;;;1.82;63.95;94622.03;5033074;28;20187;-80
2022/02/14 04:29:13;;;;;;;4.70;3.30;;;;;;;1.79;64.77;94623.09;5033065;28;20189;-79
2022/02/14 04:31:39;;;;;;;5.17;3.43;;;;;;;1.73;64.51;94617.63;5015518;28;20285;-79
2022/02/14 04:34:04;;;;;;;4.77;3.07;;;;;;;1.74;64.42;94621.78;5015630;28;20170;-81
2022/02/14 04:36:29;;;;;;;4.77;3.50;;;;;;;1.75;64.46;94623.41;5032476;28;20209;-79
2022/02/14 04:38:55;;;;;;;5.33;2.87;;;;;;;1.75;64.27;94619.13;5015996;28;20473;-78
2022/02/14 04:41:20;;;;;;;4.27;2.93;;;;;;;1.72;64.08;94614.25;5032504;28;20195;-78
2022/02/14 04:43:45;;;;;;;5.47;2.77;;;;;;;1.72;63.88;94624.47;5032122;28;20189;-79
2022/02/14 04:46:11;;;;;;;8.30;3.07;;;;;;;1.70;64.10;94622.03;5016095;28;20182;-79
2022/02/14 04:48:36;;;;;;;4.77;3.17;;;;;;;1.70;63.84;94618.66;5033830;28;20175;-79
2022/02/14 04:51:01;;;;;;;6.10;3.17;;;;;;;1.77;63.83;94612.16;5032017;28;20229;-79
2022/02/14 04:53:26;;;;;;;6.40;3.00;;;;;;;1.74;63.50;94614.94;5031938;28;20182;-80
2022/02/14 04:55:52;;;;;;;5.57;2.70;;;;;;;1.70;63.77;94616.91;5032584;28;20181;-80
2022/02/14 04:58:17;;;;;;;5.50;3.67;;;;;;;1.76;63.25;94613.06;5031962;28;20266;-77
2022/02/14 05:00:42;;;;;;;3.63;3.10;;;;;;;1.76;63.50;94618.19;5032768;28;20199;-79
2022/02/14 05:03:08;;;;;;;5.20;3.13;;;;;;;1.72;63.45;94608.31;5031253;28;20187;-78
2022/02/14 05:05:34;;;;;;;6.20;3.17;;;;;;;1.69;63.63;94609.38;5032299;28;20206;-78
2022/02/14 05:07:59;;;;;;;4.33;3.27;;;;;;;1.65;63.70;94602.84;5031762;28;20177;-78
2022/02/14 05:10:25;;;;;;;5.77;3.70;;;;;;;1.62;63.76;94608.19;5032089;28;20672;-79
2022/02/14 05:12:50;;;;;;;8.43;3.07;;;;;;;1.60;63.66;94613.44;5031406;28;20179;-80
2022/02/14 05:15:16;;;;;;;6.33;3.00;;;;;;;1.69;62.92;94609.38;5015639;28;20194;-79
2022/02/14 05:17:41;;;;;;;4.90;2.97;;;;;;;1.76;62.90;94605.38;5016131;28;20683;-80
2022/02/14 05:20:07;;;;;;;5.20;2.77;;;;;;;1.79;62.79;94609.47;5035325;28;20212;-78
2022/02/14 05:22:32;;;;;;;5.13;2.83;;;;;;;1.73;63.19;94610.75;5026544;28;20249;-78
2022/02/14 05:24:58;;;;;;;5.00;2.83;;;;;;;1.78;62.81;94610.41;5008750;28;20281;-78
2022/02/14 05:27:23;;;;;;;4.43;3.00;;;;;;;1.77;63.15;94617.28;5033838;28;20187;-79
2022/02/14 05:29:49;;;;;;;4.40;2.97;;;;;;;1.76;62.62;94613.06;5018935;28;20189;-79
2022/02/14 05:32:14;;;;;;;5.50;3.20;;;;;;;1.74;63.29;94612.38;5018598;28;20194;-78
2022/02/14 05:34:40;;;;;;;9.97;4.10;;;;;;;1.81;62.66;94623.78;5034171;28;20213;-78
2022/02/14 05:37:05;;;;;;;8.47;3.33;;;;;;;1.75;63.21;94615.75;5035741;28;20212;-79
2022/02/14 05:39:31;;;;;;;5.97;3.43;;;;;;;1.69;63.29;94614.50;5036042;28;20626;-80
2022/02/14 05:41:56;;;;;;;4.70;3.30;;;;;;;1.75;63.08;94615.75;5018135;28;20206;-79
2022/02/14 05:44:21;;;;;;;6.17;3.13;;;;;;;1.73;62.90;94615.88;5034776;28;20189;-81
2022/02/14 05:46:47;;;;;;;7.60;3.60;;;;;;;1.79;62.74;94620.53;5035734;28;20178;-82
2022/02/14 05:49:12;;;;;;;3.47;2.97;;;;;;;1.81;62.81;94622.97;5034880;28;20179;-80
2022/02/14 05:51:38;;;;;;;5.43;3.07;;;;;;;1.82;62.61;94615.16;5013552;28;20206;-80
2022/02/14 05:54:04;;;;;;;7.03;3.10;;;;;;;1.86;62.68;94626.81;5004085;28;20179;-79
2022/02/14 05:56:30;;;;;;;6.40;3.03;;;;;;;1.83;63.09;94615.97;5014804;28;20178;-78
2022/02/14 05:58:55;;;;;;;4.43;2.53;;;;;;;1.79;63.42;94617.16;5015485;28;20175;-78
2022/02/14 06:01:20;;;;;;;3.43;2.60;;;;;;;1.78;63.14;94610.41;4998181;28;20214;-77
2022/02/14 06:03:45;;;;;;;5.10;2.93;;;;;;;1.77;63.74;94614.72;5017711;28;20194;-79
2022/02/14 06:06:11;;;;;;;4.07;2.57;;;;;;;1.80;63.73;94614.47;5035074;28;20186;-79
2022/02/14 06:08:36;;;;;;;7.40;2.90;;;;;;;1.75;63.97;94614.00;5018947;28;20178;-80
2022/02/14 06:11:02;;;;;;;4.43;2.70;;;;;;;1.82;63.54;94609.22;5014487;28;20674;-79
2022/02/14 06:13:28;;;;;;;4.07;2.57;;;;;;;1.86;64.10;94614.00;5025462;28;20193;-80
2022/02/14 06:15:53;;;;;;;5.63;3.47;;;;;;;1.88;64.01;94613.88;5035795;28;20186;-78
2022/02/14 06:18:18;;;;;;;5.07;3.03;;;;;;;1.84;64.00;94618.41;5021396;28;20203;-79
2022/02/14 06:20:44;;;;;;;2.60;2.40;;;;;;;1.78;64.45;94625.78;5022041;28;20201;-79
2022/02/14 06:23:09;;;;;;;4.30;2.90;;;;;;;1.86;63.87;94633.69;5038355;28;20206;-80
2022/02/14 06:25:34;;;;;;;3.80;2.77;;;;;;;1.89;64.16;94630.88;5020889;28;20174;-79
2022/02/14 06:28:00;;;;;;;3.57;2.40;;;;;;;1.88;63.97;94630.06;5021101;28;20492;-79
2022/02/14 06:30:25;;;;;;;5.10;2.73;;;;;;;1.89;64.21;94631.69;5021533;28;20202;-78
2022/02/14 06:32:51;;;;;;;3.50;2.43;;;;;;;1.84;64.21;94636.34;5041358;28;20182;-78
2022/02/14 06:35:16;;;;;;;5.63;2.60;;;;;;;1.77;63.87;94636.91;5024528;28;20182;-81
2022/02/14 06:37:46;;;;;;;4.80;2.80;;;;;;;1.67;64.38;94642.72;5036221;28;20203;-79
2022/02/14 06:40:12;;;;;;;7.13;2.80;;;;;;;1.67;64.24;94647.03;5037204;28;20285;-80
2022/02/14 06:42:37;;;;;;;5.03;3.07;;;;;;;1.61;64.48;94644.97;5015663;28;20222;-81
2022/02/14 06:45:03;;;;;;;4.60;2.50;;;;;;;1.59;64.94;94646.78;5015455;28;20186;-80
2022/02/14 06:47:28;;;;;;;5.43;2.37;;;;;;;1.64;64.74;94642.97;5035153;28;20213;-80
2022/02/14 06:49:53;;;;;;;5.53;3.20;;;;;;;1.63;65.34;94641.34;5017975;28;20193;-80
2022/02/14 06:52:18;;;;;;;5.87;2.70;;;;;;;1.64;65.25;94642.16;5018643;28;20210;-79
2022/02/14 06:54:44;;;;;;;4.90;2.73;;;;;;;1.59;65.23;94642.53;5037074;28;20179;-80
2022/02/14 06:57:09;;;;;;;5.33;3.87;;;;;;;1.64;65.39;94642.16;5034909;28;20217;-79
2022/02/14 06:59:34;;;;;;;6.60;2.70;;;;;;;1.63;65.84;94643.09;5022213;28;20211;-80
2022/02/14 07:02:00;;;;;;;3.17;2.37;;;;;;;1.55;65.58;94648.78;5034296;28;20202;-80
2022/02/14 07:04:25;;;;;;;3.23;2.37;;;;;;;1.55;65.84;94648.78;5020172;28;20403;-78
2022/02/14 07:06:50;;;;;;;5.17;3.27;;;;;;;1.65;65.59;94651.47;5028816;28;20709;-78
2022/02/14 07:09:15;;;;;;;4.90;2.70;;;;;;;1.72;65.34;94660.31;5020626;28;20284;-79
2022/02/14 07:11:44;;;;;;;6.23;2.67;;;;;;;1.64;65.29;94657.50;5037256;28;20217;-79
2022/02/14 07:14:10;;;;;;;4.00;2.47;;;;;;;1.68;65.35;94661.50;5036296;28;20197;-80
2022/02/14 07:16:36;;;;;;;5.43;2.33;;;;;;;1.68;65.20;94659.75;5018305;28;20197;-80
2022/02/14 07:19:01;;;;;;;3.10;2.50;;;;;;;1.67;65.07;94660.66;5034547;28;20368;-80
2022/02/14 07:21:26;;;;;;;6.80;2.67;;;;;;;1.75;64.46;94670.31;5018112;28;20588;-81
2022/02/14 07:23:52;;;;;;;7.53;2.83;;;;;;;1.79;64.19;94660.69;5018743;28;20189;-81
2022/02/14 07:26:18;;;;;;;7.83;2.70;;;;;;;1.89;63.74;94659.84;5035836;28;20186;-80
2022/02/14 07:28:43;;;;;;;4.00;2.70;;;;;;;1.99;63.42;94660.78;5020654;28;20174;-80
2022/02/14 07:31:08;;;;;;;4.50;2.73;;;;;;;2.03;63.33;94666.47;5035558;28;20233;-79
2022/02/14 07:33:34;;;;;;;4.30;2.50;;;;;;;2.12;63.10;94659.81;5019286;28;20958;-79
2022/02/14 07:35:59;;;;;;;5.10;3.07;;;;;;;2.19;63.36;94669.47;5037006;28;20179;-80
2022/02/14 07:38:25;;;;;;;3.70;2.50;;;;;;;2.35;63.24;94658.88;5019942;28;20256;-80
2022/02/14 07:40:50;;;;;;;6.03;2.87;;;;;;;2.48;62.79;94662.13;5021982;28;20238;-79
2022/02/14 07:43:15;;;;;;;6.00;3.17;;;;;;;2.66;62.47;94659.03;5033395;28;20572;-81
2022/02/14 07:45:42;;;;;;;6.60;3.60;;;;;;;2.75;62.54;94661.69;5036339;28;20221;-80
2022/02/14 07:48:08;;;;;;;5.93;2.80;;;;;;;2.95;61.19;94661.84;5036395;28;20255;-80
2022/02/14 07:50:33;;;;;;;4.37;2.53;;;;;;;3.18;60.85;94657.41;5026837;28;20708;-78
2022/02/14 07:52:58;;;;;;;4.03;2.60;;;;;;;3.32;59.92;94663.06;5034339;28;20249;-79
2022/02/14 07:55:24;;;;;;;6.40;2.30;;;;;;;3.40;59.18;94657.28;5053425;28;20188;-79
2022/02/14 07:57:49;;;;;;;3.50;2.70;;;;;;;3.48;58.37;94662.63;5023861;28;20711;-79
2022/02/14 08:00:16;;;;;;;2.83;2.10;;;;;;;3.58;58.34;94667.81;5028738;28;20264;-80
2022/02/14 08:02:41;;;;;;;5.90;2.67;;;;;;;3.57;57.83;94659.28;5053701;28;20496;-79
2022/02/14 08:05:07;;;;;;;3.83;2.70;;;;;;;3.56;58.69;94660.22;5038729;28;20256;-80
2022/02/14 08:07:33;;;;;;;3.43;2.43;;;;;;;3.66;57.79;94650.81;5039490;28;20195;-79
2022/02/14 08:09:58;;;;;;;5.30;2.67;;;;;;;3.73;57.70;94656.28;5030389;28;20188;-80
2022/02/14 08:12:24;;;;;;;3.73;2.57;;;;;;;3.77;57.61;94651.69;5037273;28;20663;-80
2022/02/14 08:14:50;;;;;;;5.33;2.43;;;;;;;3.80;57.76;94648.84;5025670;28;20190;-79
2022/02/14 08:17:16;;;;;;;6.40;2.30;;;;;;;3.80;57.87;94643.72;5019114;28;20195;-80
2022/02/14 08:19:42;;;;;;;6.23;2.63;;;;;;;3.71;58.35;94647.88;5021058;28;20205;-78
2022/02/14 08:22:07;;;;;;;5.43;2.50;;;;;;;3.75;58.13;94645.88;5036007;28;20202;-79
2022/02/14 08:24:33;;;;;;;3.73;2.40;;;;;;;3.75;57.65;94654.38;5045549;28;20236;-80
2022/02/14 08:26:59;;;;;;;4.90;2.33;;;;;;;3.84;58.36;94650.22;5055976;28;20600;-79
2022/02/14 08:29:26;;;;;;;3.50;2.17;;;;;;;3.98;58.08;94647.34;5037091;28;20197;-79
2022/02/14 08:31:52;;;;;;;3.13;2.40;;;;;;;4.18;57.03;94645.63;5037610;28;20213;-80
2022/02/14 08:34:17;;;;;;;6.63;2.37;;;;;;;4.37;57.42;94650.00;5041559;28;20189;-80
2022/02/14 08:36:45;;;;;;;7.63;2.87;;;;;;;4.41;56.73;94651.34;5057324;28;20258;-80
2022/02/14 08:39:10;;;;;;;3.03;2.47;;;;;;;4.69;55.81;94653.19;5054390;28;20187;-81
2022/02/14 08:41:36;;;;;;;3.70;2.10;;;;;;;4.82;55.36;94648.59;5038254;28;20614;-80
2022/02/14 08:44:01;;;;;;;4.60;2.77;;;;;;;4.75;55.19;94647.50;5040280;28;20196;-80
2022/02/14 08:46:28;;;;;;;5.23;2.90;;;;;;;4.84;55.38;94641.53;5034633;28;20265;-80
2022/02/14 08:48:54;;;;;;;4.07;2.30;;;;;;;4.89;55.53;94642.91;5035114;28;20644;-79
2022/02/14 08:51:20;;;;;;;6.23;3.17;;;;;;;4.88;55.44;94644.66;5017041;28;20202;-78
2022/02/14 08:53:47;;;;;;;5.80;3.30;;;;;;;4.80;56.01;94649.69;5029015;28;20224;-80
2022/02/14 08:56:12;;;;;;;3.43;2.63;;;;;;;4.72;56.45;94644.38;5037916;28;20575;-80
2022/02/14 08:58:41;;;;;;;5.90;2.83;;;;;;;4.63;57.18;94646.00;5052594;28;20201;-80
2022/02/14 09:01:07;;;;;;;5.60;2.73;;;;;;;4.60;57.45;94632.59;5037944;28;20256;-81
2022/02/14 09:03:33;;;;;;;4.77;3.00;;;;;;;4.72;56.99;94629.75;5047406;28;20261;-80
2022/02/14 09:05:59;;;;;;;4.37;2.80;;;;;;;4.74;57.30;94619.34;5023187;28;20644;-80
2022/02/14 09:08:27;;;;;;;8.10;4.03;;;;;;;4.63;57.57;94622.03;5015439;28;20185;-81
2022/02/14 09:10:53;;;;;;;4.97;2.33;;;;;;;4.70;57.45;94623.13;5050561;28;20213;-80
2022/02/14 09:13:18;;;;;;;4.87;3.00;;;;;;;4.65;57.96;94620.97;5053826;28;20181;-79
2022/02/14 09:15:44;;;;;;;6.47;4.03;;;;;;;4.59;58.46;94618.09;5022128;28;20183;-80
2022/02/14 09:18:09;;;;;;;6.17;2.90;;;;;;;4.78;58.59;94611.22;5034716;28;20201;-79
2022/02/14 09:20:36;;;;;;;4.83;3.17;;;;;;;4.78;60.06;94610.41;5019722;28;20580;-79
2022/02/14 09:23:01;;;;;;;3.83;2.97;;;;;;;4.98;59.64;94611.22;5027924;28;20205;-78
2022/02/14 09:25:27;;;;;;;6.97;2.97;;;;;;;5.11;59.98;94607.41;5022648;28;20197;-79
2022/02/14 09:27:52;;;;;;;5.93;3.40;;;;;;;5.23;59.80;94608.09;5031012;28;20179;-79
2022/02/14 09:30:18;;;;;;;4.00;2.97;;;;;;;5.34;59.83;94607.94;5036351;28;20209;-78
2022/02/14 09:32:43;;;;;;;7.30;3.80;;;;;;;5.49;60.70;94604.91;5050093;28;20761;-79
2022/02/14 09:35:08;;;;;;;4.57;3.50;;;;;;;5.68;61.00;94610.00;5044988;28;20217;-78
2022/02/14 09:37:34;;;;;;;2.93;2.57;;;;;;;5.94;62.45;94607.63;5007830;28;20260;-78
2022/02/14 09:40:00;;;;;;;7.00;2.50;;;;;;;6.11;62.17;94606.88;5016041;28;20186;-79
2022/02/14 09:42:25;;;;;;;4.80;2.40;;;;;;;6.23;61.96;94604.91;5029091;28;20182;-78
2022/02/14 09:44:51;;;;;;;4.40;2.00;;;;;;;6.34;62.66;94615.03;5015668;28;20226;-79
2022/02/14 09:47:16;;;;;;;2.90;2.00;;;;;;;6.47;62.55;94607.78;5026464;28;20234;-78
2022/02/14 09:49:42;;;;;;;6.30;2.53;;;;;;;6.63;61.76;94606.31;5027881;28;20190;-79
2022/02/14 09:52:08;;;;;;;3.03;2.10;;;;;;;6.74;60.94;94603.50;5016938;28;20277;-79
2022/02/14 09:54:33;;;;;;;4.03;1.93;;;;;;;6.85;61.97;94605.88;5014372;28;20209;-78
2022/02/14 09:56:58;;;;;;;5.20;1.83;;;;;;;7.01;62.25;94605.22;5036655;28;20198;-80
2022/02/14 09:59:24;;;;;;;8.17;3.07;;;;;;;7.06;62.09;94606.38;5018555;28;20182;-81
2022/02/14 10:01:50;;;;;;;5.03;1.93;;;;;;;7.24;61.28;94605.53;5030924;28;20203;-78
2022/02/14 10:04:15;;;;;;;3.47;1.70;;;;;;;7.28;63.52;94617.19;5040868;28;20199;-79
2022/02/14 10:06:43;;;;;;;6.37;2.20;;;;;;;7.49;62.96;94615.06;5019891;28;20179;-81
2022/02/14 10:09:11;;;;;;;4.20;1.70;;;;;;;7.67;62.23;94618.41;5029338;28;20178;-79
2022/02/14 10:11:55;;;;;;;6.33;1.87;;;;;;;7.88;61.57;94625.03;5025878;28;20706;-80
2022/02/14 10:14:21;;;;;;;4.40;1.90;;;;;;;8.12;62.29;94630.28;5028993;28;20209;-79
2022/02/14 10:17:18;;;;;;;2.77;1.60;;;;;;;8.26;59.88;94615.97;5039165;28;20335;-80
2022/02/14 10:19:59;;;;;;;4.90;1.60;;;;;;;8.35;59.64;94627.19;5028298;28;20236;-79
2022/02/14 10:22:25;;;;;;;5.70;1.87;;;;;;;8.53;60.44;94622.72;5036485;28;20273;-80
2022/02/14 10:24:50;;;;;;;2.20;1.53;;;;;;;8.72;60.65;94619.03;5019886;28;20237;-78
2022/02/14 10:27:17;;;;;;;6.77;2.03;;;;;;;8.73;60.31;94616.28;5018734;28;20185;-78
2022/02/14 10:29:42;;;;;;;3.90;1.80;;;;;;;8.98;60.54;94614.56;5031636;28;20193;-78
2022/02/14 10:32:09;;;;;;;4.03;1.73;;;;;;;9.11;61.19;94624.47;5018451;28;20203;-77
2022/02/14 10:34:36;;;;;;;4.03;1.53;;;;;;;9.23;61.36;94615.38;5040274;28;20247;-78
2022/02/14 10:37:02;;;;;;;3.20;1.33;;;;;;;9.16;61.42;94618.78;5037866;28;20318;-80
2022/02/14 10:39:28;;;;;;;2.10;1.33;;;;;;;9.12;61.71;94623.50;5052554;28;20178;-78
2022/02/14 10:42:09;;;;;;;2.43;1.30;;;;;;;9.23;61.62;94624.94;5054651;28;20194;-79
2022/02/14 10:47:29;;;;;;;2.37;0.97;;;;;;;9.12;61.57;94609.72;5058139;28;20192;-79
2022/02/14 10:50:06;;;;;;;2.27;1.10;;;;;;;9.17;61.56;94608.25;5038629;28;20178;-78
2022/02/14 10:52:37;;;;;;;2.27;1.20;;;;;;;9.21;61.54;94603.56;5034948;28;20190;-81
2022/02/14 10:55:04;;;;;;;3.93;1.40;;;;;;;9.40;61.16;94600.66;5015771;28;20182;-79
2022/02/14 10:57:32;;;;;;;3.67;1.30;;;;;;;9.41;61.23;94599.66;5017776;28;20260;-78
2022/02/14 11:00:12;;;;;;;2.83;1.20;;;;;;;9.28;61.02;94589.00;5018325;28;20221;-79
2022/02/14 11:02:40;;;;;;;3.33;1.23;;;;;;;9.40;61.15;94586.88;5032105;28;20186;-77
2022/02/14 11:05:06;;;;;;;2.13;1.30;;;;;;;9.44;60.97;94588.97;5017058;28;20174;-78
2022/02/14 11:07:33;;;;;;;5.70;1.20;;;;;;;9.42;61.19;94590.91;5027808;28;20178;-78
2022/02/14 11:10:01;;;;;;;2.97;1.30;;;;;;;9.38;60.64;94588.84;5034268;28;20178;-78
2022/02/14 11:12:31;;;;;;;3.10;1.60;;;;;;;9.38;61.08;94588.84;5031050;28;20564;-79
2022/02/14 11:14:57;;;;;;;2.80;1.13;;;;;;;9.35;60.66;94595.94;5025979;28;20265;-78
2022/02/14 11:17:31;;;;;;;3.10;1.20;;;;;;;9.37;60.56;94590.63;5020993;28;20281;-78
2022/02/14 11:20:03;;;;;;;3.13;1.10;;;;;;;9.28;60.29;94607.16;5053495;28;20359;-78
2022/02/14 11:22:30;;;;;;;2.17;1.13;;;;;;;9.22;61.21;94593.03;5042108;28;20189;-78
2022/02/14 11:25:08;;;;;;;3.10;1.67;;;;;;;9.27;61.23;94595.13;5033551;28;20196;-79
2022/02/14 11:27:37;;;;;;;2.53;0.97;;;;;;;9.23;61.16;94602.44;5021102;28;20171;-78
2022/02/14 11:30:08;;;;;;;3.27;1.30;;;;;;;9.22;61.61;94600.81;5024880;28;20660;-78
2022/02/14 11:32:39;;;;;;;3.03;1.20;;;;;;;9.05;61.28;94588.84;5029230;28;20186;-78
2022/02/14 11:35:18;;;;;;;2.63;1.07;;;;;;;9.29;61.73;94594.03;5014183;28;20190;-79
2022/02/14 11:37:53;;;;;;;4.30;1.70;;;;;;;9.25;61.71;94589.31;5014063;28;20205;-78
2022/02/14 11:40:27;;;;;;;3.43;1.33;;;;;;;9.38;61.58;94579.28;5020861;28;20207;-76